createdAt,value
2016-09-14T00:00:30.154Z,0
2016-09-14T00:01:30.146Z,0
2016-09-14T00:02:30.131Z,0
2016-09-14T00:03:30.150Z,0
2016-09-14T00:04:30.130Z,0
2016-09-14T00:05:30.138Z,0
2016-09-14T00:06:30.115Z,0
2016-09-14T00:07:30.131Z,0
2016-09-14T00:08:30.073Z,0
2016-09-14T00:09:30.094Z,0
2016-09-14T00:10:30.074Z,0
2016-09-14T00:11:30.069Z,0
2016-09-14T00:12:30.051Z,0
2016-09-14T00:13:30.072Z,0
2016-09-14T00:14:30.043Z,0
2016-09-14T00:15:30.060Z,0
2016-09-14T00:16:30.026Z,0
2016-09-14T00:17:30.032Z,0
2016-09-14T00:18:30.007Z,0
2016-09-14T00:19:30.030Z,0
2016-09-14T00:20:30.005Z,0
2016-09-14T00:21:30.010Z,0
2016-09-14T00:22:29.971Z,0
2016-09-14T00:23:29.988Z,0
2016-09-14T00:24:29.976Z,0
2016-09-14T00:25:29.973Z,0
2016-09-14T00:26:29.967Z,0
2016-09-14T00:27:29.964Z,0
2016-09-14T00:28:29.963Z,0
2016-09-14T00:29:29.958Z,0
2016-09-14T00:30:29.953Z,0
2016-09-14T00:31:29.956Z,0
2016-09-14T00:32:29.932Z,0
2016-09-14T00:33:29.900Z,0
2016-09-14T00:34:29.915Z,0
2016-09-14T00:35:29.927Z,0
2016-09-14T00:36:29.916Z,0
2016-09-14T00:37:29.897Z,0
2016-09-14T00:38:29.878Z,0
2016-09-14T00:39:29.888Z,0
2016-09-14T00:40:29.880Z,0
2016-09-14T00:41:29.858Z,0
2016-09-14T00:42:29.853Z,0
2016-09-14T00:43:29.839Z,0
2016-09-14T00:44:29.830Z,0
2016-09-14T00:45:29.854Z,0
2016-09-14T00:46:29.822Z,0
2016-09-14T00:47:29.810Z,0
2016-09-14T00:48:29.817Z,0
2016-09-14T00:49:29.789Z,0
2016-09-14T00:50:29.791Z,0
2016-09-14T00:51:29.792Z,0
2016-09-14T00:52:29.785Z,0
2016-09-14T00:53:29.795Z,0
2016-09-14T00:54:29.769Z,0
2016-09-14T00:55:29.735Z,0
2016-09-14T00:56:29.739Z,0
2016-09-14T00:57:29.757Z,0
2016-09-14T00:58:29.750Z,0
2016-09-14T00:59:29.709Z,0
2016-09-14T01:00:29.723Z,0
2016-09-14T01:01:29.709Z,0
2016-09-14T01:02:29.695Z,0
2016-09-14T01:03:29.693Z,0
2016-09-14T01:04:29.686Z,0
2016-09-14T01:05:29.680Z,0
2016-09-14T01:06:29.677Z,0
2016-09-14T01:07:29.679Z,0
2016-09-14T01:08:29.646Z,0
2016-09-14T01:09:29.651Z,0
2016-09-14T01:10:29.635Z,0
2016-09-14T01:11:29.654Z,0
2016-09-14T01:12:29.628Z,0
2016-09-14T01:13:29.609Z,0
2016-09-14T01:14:29.621Z,0
2016-09-14T01:15:29.604Z,0
2016-09-14T01:16:29.586Z,0
2016-09-14T01:17:29.604Z,0
2016-09-14T01:18:29.559Z,0
2016-09-14T01:19:29.582Z,0
2016-09-14T01:20:29.580Z,0
2016-09-14T01:21:29.549Z,0
2016-09-14T01:22:29.559Z,0
2016-09-14T01:23:29.554Z,0
2016-09-14T01:24:29.529Z,0
2016-09-14T01:25:29.540Z,0
2016-09-14T01:26:29.500Z,0
2016-09-14T01:27:29.522Z,0
2016-09-14T01:28:29.804Z,0
2016-09-14T01:29:29.495Z,0
2016-09-14T01:30:29.498Z,0
2016-09-14T01:31:29.494Z,0
2016-09-14T01:32:29.455Z,0
2016-09-14T01:33:29.471Z,0
2016-09-14T01:34:29.447Z,0
2016-09-14T01:35:29.470Z,0
2016-09-14T01:36:29.467Z,0
2016-09-14T01:37:29.450Z,0
2016-09-14T01:38:29.584Z,0
2016-09-14T01:39:29.420Z,0
2016-09-14T01:40:29.416Z,0
2016-09-14T01:41:29.400Z,0
2016-09-14T01:42:29.416Z,0
2016-09-14T01:43:29.394Z,0
2016-09-14T01:44:29.394Z,0
2016-09-14T01:45:29.381Z,0
2016-09-14T01:46:29.373Z,0
2016-09-14T01:47:29.357Z,0
2016-09-14T01:48:29.354Z,0
2016-09-14T01:49:29.333Z,0
2016-09-14T01:50:29.341Z,0
2016-09-14T01:51:29.340Z,0
2016-09-14T01:52:29.321Z,0
2016-09-14T01:53:29.312Z,0
2016-09-14T01:54:29.308Z,0
2016-09-14T01:55:29.322Z,0
2016-09-14T01:56:29.294Z,0
2016-09-14T01:57:29.281Z,0
2016-09-14T01:58:29.306Z,0
2016-09-14T01:59:29.299Z,0
2016-09-14T02:00:29.290Z,0
2016-09-14T02:01:29.279Z,0
2016-09-14T02:02:29.255Z,0
2016-09-14T02:03:29.242Z,0
2016-09-14T02:04:29.232Z,0
2016-09-14T02:05:29.226Z,0
2016-09-14T02:06:29.218Z,0
2016-09-14T02:07:29.212Z,0
2016-09-14T02:08:29.221Z,0
2016-09-14T02:09:29.174Z,0
2016-09-14T02:10:29.202Z,0
2016-09-14T02:11:29.164Z,0
2016-09-14T02:12:29.166Z,0
2016-09-14T02:13:29.153Z,0
2016-09-14T02:14:29.168Z,0
2016-09-14T02:15:29.129Z,0
2016-09-14T02:16:29.143Z,0
2016-09-14T02:17:29.134Z,0
2016-09-14T02:18:29.123Z,0
2016-09-14T02:19:29.127Z,0
2016-09-14T02:20:29.113Z,0
2016-09-14T02:21:29.115Z,0
2016-09-14T02:22:29.095Z,0
2016-09-14T02:23:29.119Z,0
2016-09-14T02:24:29.103Z,0
2016-09-14T02:25:29.064Z,0
2016-09-14T02:26:29.106Z,0
2016-09-14T02:27:29.090Z,0
2016-09-14T02:28:29.035Z,0
2016-09-14T02:29:29.050Z,0
2016-09-14T02:30:29.326Z,0
2016-09-14T02:31:29.031Z,0
2016-09-14T02:32:29.025Z,0
2016-09-14T02:33:29.010Z,0
2016-09-14T02:34:29.015Z,0
2016-09-14T02:35:29.009Z,0
2016-09-14T02:36:29.005Z,0
2016-09-14T02:37:28.993Z,0
2016-09-14T02:38:29.029Z,0
2016-09-14T02:39:28.973Z,0
2016-09-14T02:40:29.004Z,0
2016-09-14T02:41:28.969Z,0
2016-09-14T02:42:28.971Z,0
2016-09-14T02:43:28.943Z,0
2016-09-14T02:44:28.926Z,0
2016-09-14T02:45:28.930Z,0
2016-09-14T02:46:28.935Z,0
2016-09-14T02:47:28.927Z,0
2016-09-14T02:48:28.888Z,0
2016-09-14T02:49:28.905Z,0
2016-09-14T02:50:28.912Z,0
2016-09-14T02:51:28.898Z,0
2016-09-14T02:52:28.882Z,0
2016-09-14T02:53:28.862Z,0
2016-09-14T02:54:28.853Z,0
2016-09-14T02:55:28.869Z,0
2016-09-14T02:56:28.839Z,0
2016-09-14T02:57:28.851Z,0
2016-09-14T02:58:28.852Z,0
2016-09-14T02:59:28.817Z,0
2016-09-14T03:00:28.822Z,0
2016-09-14T03:01:28.823Z,0
2016-09-14T03:02:28.799Z,0
2016-09-14T03:03:28.793Z,0
2016-09-14T03:04:28.798Z,0
2016-09-14T03:05:28.794Z,0
2016-09-14T03:06:28.791Z,0
2016-09-14T03:07:28.777Z,0
2016-09-14T03:08:28.749Z,0
2016-09-14T03:09:28.737Z,0
2016-09-14T03:10:28.745Z,0
2016-09-14T03:11:28.717Z,0
2016-09-14T03:12:28.732Z,0
2016-09-14T03:13:28.713Z,0
2016-09-14T03:14:28.713Z,0
2016-09-14T03:15:28.730Z,0
2016-09-14T03:16:28.692Z,0
2016-09-14T03:17:28.701Z,0
2016-09-14T03:18:29.007Z,0
2016-09-14T03:19:28.678Z,0
2016-09-14T03:20:28.653Z,0
2016-09-14T03:21:28.643Z,0
2016-09-14T03:22:28.663Z,0
2016-09-14T03:23:28.620Z,0
2016-09-14T03:24:28.660Z,0
2016-09-14T03:25:28.624Z,0
2016-09-14T03:26:28.632Z,0
2016-09-14T03:27:28.616Z,0
2016-09-14T03:28:28.611Z,0
2016-09-14T03:29:28.597Z,0
2016-09-14T03:30:28.604Z,0
2016-09-14T03:31:28.585Z,0
2016-09-14T03:32:28.577Z,0
2016-09-14T03:33:28.579Z,0
2016-09-14T03:34:28.569Z,0
2016-09-14T03:35:28.565Z,0
2016-09-14T03:36:28.564Z,0
2016-09-14T03:37:28.538Z,0
2016-09-14T03:38:28.550Z,0
2016-09-14T03:39:28.537Z,0
2016-09-14T03:40:28.510Z,0
2016-09-14T03:41:28.516Z,0
2016-09-14T03:42:28.500Z,0
2016-09-14T03:43:28.479Z,0
2016-09-14T03:44:28.478Z,0
2016-09-14T03:45:28.469Z,0
2016-09-14T03:46:28.473Z,0
2016-09-14T03:47:28.443Z,0
2016-09-14T03:48:28.450Z,0
2016-09-14T03:49:28.445Z,0
2016-09-14T03:50:28.452Z,0
2016-09-14T03:51:28.442Z,0
2016-09-14T03:52:28.418Z,0
2016-09-14T03:53:28.415Z,0
2016-09-14T03:54:28.410Z,0
2016-09-14T03:55:28.391Z,0
2016-09-14T03:56:28.385Z,0
2016-09-14T03:57:28.384Z,0
2016-09-14T03:58:28.374Z,0
2016-09-14T03:59:28.534Z,0
2016-09-14T04:00:28.358Z,0
2016-09-14T04:01:28.342Z,0
2016-09-14T04:02:28.355Z,0
2016-09-14T04:03:28.364Z,0
2016-09-14T04:04:28.334Z,0
2016-09-14T04:05:28.332Z,0
2016-09-14T04:06:28.341Z,0
2016-09-14T04:07:28.297Z,0
2016-09-14T04:08:28.316Z,0
2016-09-14T04:09:28.306Z,0
2016-09-14T04:10:28.294Z,0
2016-09-14T04:11:28.269Z,0
2016-09-14T04:12:28.251Z,0
2016-09-14T04:13:28.256Z,0
2016-09-14T04:14:28.248Z,0
2016-09-14T04:15:28.260Z,0
2016-09-14T04:16:28.246Z,0
2016-09-14T04:17:28.247Z,0
2016-09-14T04:18:28.223Z,4
2016-09-14T04:19:28.213Z,0
2016-09-14T04:20:28.227Z,0
2016-09-14T04:21:28.234Z,4
2016-09-14T04:22:28.200Z,4
2016-09-14T04:23:28.199Z,4
2016-09-14T04:24:28.190Z,4
2016-09-14T04:25:28.189Z,8
2016-09-14T04:26:28.174Z,8
2016-09-14T04:27:28.188Z,12
2016-09-14T04:28:28.160Z,16
2016-09-14T04:29:28.156Z,16
2016-09-14T04:30:28.150Z,20
2016-09-14T04:31:28.139Z,24
2016-09-14T04:32:28.418Z,32
2016-09-14T04:33:28.106Z,36
2016-09-14T04:34:28.110Z,44
2016-09-14T04:35:28.098Z,56
2016-09-14T04:36:28.079Z,64
2016-09-14T04:37:28.072Z,76
2016-09-14T04:38:28.368Z,92
2016-09-14T04:39:28.075Z,108
2016-09-14T04:40:28.061Z,128
2016-09-14T04:41:28.044Z,148
2016-09-14T04:42:28.038Z,172
2016-09-14T04:43:28.056Z,200
2016-09-14T04:44:28.041Z,228
2016-09-14T04:45:28.022Z,264
2016-09-14T04:46:28.025Z,304
2016-09-14T04:47:28.010Z,340
2016-09-14T04:48:27.994Z,384
2016-09-14T04:49:27.988Z,428
2016-09-14T04:50:27.988Z,472
2016-09-14T04:51:27.975Z,528
2016-09-14T04:52:27.963Z,584
2016-09-14T04:53:27.969Z,640
2016-09-14T04:54:27.948Z,704
2016-09-14T04:55:27.944Z,768
2016-09-14T04:56:27.955Z,836
2016-09-14T04:57:27.956Z,908
2016-09-14T04:58:27.938Z,980
2016-09-14T04:59:27.917Z,1060
2016-09-14T05:00:27.905Z,1140
2016-09-14T05:01:27.908Z,1236
2016-09-14T05:02:27.896Z,1320
2016-09-14T05:03:27.893Z,1420
2016-09-14T05:04:27.867Z,1536
2016-09-14T05:05:27.879Z,1680
2016-09-14T05:06:27.890Z,1808
2016-09-14T05:07:27.857Z,1856
2016-09-14T05:08:27.860Z,1880
2016-09-14T05:09:27.838Z,1940
2016-09-14T05:10:27.854Z,2052
2016-09-14T05:11:27.823Z,2156
2016-09-14T05:12:27.838Z,2216
2016-09-14T05:13:27.825Z,2304
2016-09-14T05:14:27.812Z,2400
2016-09-14T05:15:27.780Z,2492
2016-09-14T05:16:27.776Z,2584
2016-09-14T05:17:27.796Z,2732
2016-09-14T05:18:27.780Z,3060
2016-09-14T05:19:27.793Z,3432
2016-09-14T05:20:27.776Z,3628
2016-09-14T05:21:27.767Z,3788
2016-09-14T05:22:27.781Z,3944
2016-09-14T05:23:28.087Z,4116
2016-09-14T05:24:27.734Z,4352
2016-09-14T05:25:27.731Z,4520
2016-09-14T05:26:27.714Z,4744
2016-09-14T05:27:27.714Z,5024
2016-09-14T05:28:27.711Z,5272
2016-09-14T05:29:27.709Z,5400
2016-09-14T05:30:27.686Z,5688
2016-09-14T05:31:27.701Z,6032
2016-09-14T05:32:27.682Z,5980
2016-09-14T05:33:27.666Z,5844
2016-09-14T05:34:27.683Z,5936
2016-09-14T05:35:27.652Z,6536
2016-09-14T05:36:27.659Z,6876
2016-09-14T05:37:27.661Z,6784
2016-09-14T05:38:27.671Z,6608
2016-09-14T05:39:27.624Z,6992
2016-09-14T05:40:27.645Z,8028
2016-09-14T05:41:27.646Z,9048
2016-09-14T05:42:27.641Z,9392
2016-09-14T05:43:27.598Z,9204
2016-09-14T05:44:27.611Z,8728
2016-09-14T05:45:27.593Z,8980
2016-09-14T05:46:27.600Z,10144
2016-09-14T05:47:27.594Z,10048
2016-09-14T05:48:27.572Z,9124
2016-09-14T05:49:27.567Z,8320
2016-09-14T05:50:27.561Z,9532
2016-09-14T05:51:27.571Z,11228
2016-09-14T05:52:27.532Z,11500
2016-09-14T05:53:27.525Z,11300
2016-09-14T05:54:27.532Z,12092
2016-09-14T05:55:27.538Z,12664
2016-09-14T05:56:27.538Z,13052
2016-09-14T05:57:27.543Z,12844
2016-09-14T05:58:27.526Z,12068
2016-09-14T05:59:27.500Z,12888
2016-09-14T06:00:27.489Z,13232
2016-09-14T06:01:27.526Z,12084
2016-09-14T06:02:27.501Z,11672
2016-09-14T06:03:27.513Z,12612
2016-09-14T06:04:27.484Z,14176
2016-09-14T06:05:27.479Z,14944
2016-09-14T06:06:27.470Z,15504
2016-09-14T06:07:27.474Z,14660
2016-09-14T06:08:27.449Z,14296
2016-09-14T06:09:27.467Z,14248
2016-09-14T06:10:27.471Z,14424
2016-09-14T06:11:27.440Z,17280
2016-09-14T06:12:27.440Z,17824
2016-09-14T06:13:27.433Z,16512
2016-09-14T06:14:27.420Z,15904
2016-09-14T06:15:27.431Z,17472
2016-09-14T06:16:27.431Z,19584
2016-09-14T06:17:27.403Z,20640
2016-09-14T06:18:27.399Z,20896
2016-09-14T06:19:27.398Z,19936
2016-09-14T06:20:27.389Z,18400
2016-09-14T06:21:27.364Z,18912
2016-09-14T06:22:27.392Z,20960
2016-09-14T06:23:27.384Z,22528
2016-09-14T06:24:27.385Z,24032
2016-09-14T06:25:27.353Z,23104
2016-09-14T06:26:27.336Z,22368
2016-09-14T06:27:27.348Z,21088
2016-09-14T06:28:27.359Z,19296
2016-09-14T06:29:27.370Z,19904
2016-09-14T06:30:27.346Z,20608
2016-09-14T06:31:27.325Z,22432
2016-09-14T06:32:27.351Z,22560
2016-09-14T06:33:27.651Z,23328
2016-09-14T06:34:27.318Z,26528
2016-09-14T06:35:27.304Z,25440
2016-09-14T06:36:27.315Z,25216
2016-09-14T06:37:27.291Z,24640
2016-09-14T06:38:27.286Z,23264
2016-09-14T06:39:27.595Z,25312
2016-09-14T06:40:27.270Z,25056
2016-09-14T06:41:27.256Z,23968
2016-09-14T06:42:27.283Z,28256
2016-09-14T06:43:27.286Z,30720
2016-09-14T06:44:27.255Z,27168
2016-09-14T06:45:27.267Z,27072
2016-09-14T06:46:27.270Z,24768
2016-09-14T06:47:27.254Z,24000
2016-09-14T06:48:27.565Z,27840
2016-09-14T06:49:27.238Z,27040
2016-09-14T06:50:27.243Z,25984
2016-09-14T06:51:27.236Z,29088
2016-09-14T06:52:27.236Z,34240
2016-09-14T06:53:27.244Z,29824
2016-09-14T06:54:27.211Z,26848
2016-09-14T06:55:27.250Z,26784
2016-09-14T06:56:27.499Z,29344
2016-09-14T06:57:27.206Z,31456
2016-09-14T06:58:27.216Z,29184
2016-09-14T06:59:27.198Z,31616
2016-09-14T07:00:27.212Z,32288
2016-09-14T07:01:27.189Z,34144
2016-09-14T07:02:27.217Z,35584
2016-09-14T07:03:27.169Z,31264
2016-09-14T07:04:27.217Z,30560
2016-09-14T07:05:27.190Z,34464
2016-09-14T07:06:27.191Z,43200
2016-09-14T07:07:27.163Z,40480
2016-09-14T07:08:27.187Z,27200
2016-09-14T07:09:27.167Z,21536
2016-09-14T07:10:27.180Z,21024
2016-09-14T07:11:27.159Z,26016
2016-09-14T07:12:27.181Z,35200
2016-09-14T07:13:27.164Z,39904
2016-09-14T07:14:27.159Z,40224
2016-09-14T07:15:27.159Z,36544
2016-09-14T07:16:27.153Z,36160
2016-09-14T07:17:27.149Z,34496
2016-09-14T07:18:27.172Z,34400
2016-09-14T07:19:27.134Z,36576
2016-09-14T07:20:27.140Z,32736
2016-09-14T07:21:27.153Z,36896
2016-09-14T07:22:27.129Z,44608
2016-09-14T07:23:27.138Z,42624
2016-09-14T07:24:27.107Z,36224
2016-09-14T07:25:27.113Z,39360
2016-09-14T07:26:27.125Z,45504
2016-09-14T07:27:27.107Z,46368
2016-09-14T07:28:27.128Z,40832
2016-09-14T07:29:27.107Z,40864
2016-09-14T07:30:27.106Z,46400
2016-09-14T07:31:27.108Z,44448
2016-09-14T07:32:27.086Z,47040
2016-09-14T07:33:27.106Z,48064
2016-09-14T07:34:27.409Z,47520
2016-09-14T07:35:27.118Z,49792
2016-09-14T07:36:27.057Z,44448
2016-09-14T07:37:27.075Z,33024
2016-09-14T07:38:27.096Z,28608
2016-09-14T07:39:28.922Z,29088
2016-09-14T07:40:27.046Z,45120
2016-09-14T07:41:27.076Z,54496
2016-09-14T07:42:27.067Z,50112
2016-09-14T07:43:27.042Z,43136
2016-09-14T07:44:27.039Z,45088
2016-09-14T07:45:27.063Z,48128
2016-09-14T07:46:27.039Z,46304
2016-09-14T07:47:27.068Z,49600
2016-09-14T07:48:27.051Z,48192
2016-09-14T07:49:27.022Z,43008
2016-09-14T07:50:27.062Z,44192
2016-09-14T07:51:27.034Z,45312
2016-09-14T07:52:27.017Z,44832
2016-09-14T07:53:27.054Z,48544
2016-09-14T07:54:27.017Z,54336
2016-09-14T07:55:27.007Z,54368
2016-09-14T07:56:27.028Z,50976
2016-09-14T07:57:27.035Z,44192
2016-09-14T07:58:27.030Z,45184
2016-09-14T07:59:27.015Z,55712
2016-09-14T08:00:26.994Z,56288
2016-09-14T08:01:26.997Z,47488
2016-09-14T08:02:27.014Z,38752
2016-09-14T08:03:27.011Z,42112
2016-09-14T08:04:27.002Z,49216
2016-09-14T08:05:27.021Z,50624
2016-09-14T08:06:27.280Z,50976
2016-09-14T08:07:26.991Z,51552
2016-09-14T08:08:26.997Z,57280
2016-09-14T08:09:26.973Z,58176
2016-09-14T08:10:26.970Z,51840
2016-09-14T08:11:26.973Z,49600
2016-09-14T08:12:26.999Z,50432
2016-09-14T08:13:26.983Z,52544
2016-09-14T08:14:26.963Z,56864
2016-09-14T08:15:26.945Z,62880
2016-09-14T08:16:26.986Z,61568
2016-09-14T08:17:26.949Z,66944
2016-09-14T08:18:26.951Z,66208
2016-09-14T08:19:26.964Z,62656
2016-09-14T08:20:26.971Z,63904
2016-09-14T08:21:26.951Z,63136
2016-09-14T08:22:26.934Z,60192
2016-09-14T08:23:26.942Z,63808
2016-09-14T08:24:26.949Z,60704
2016-09-14T08:25:26.921Z,54080
2016-09-14T08:26:26.906Z,54752
2016-09-14T08:27:26.910Z,60416
2016-09-14T08:28:26.923Z,63424
2016-09-14T08:29:26.896Z,65824
2016-09-14T08:30:26.925Z,68576
2016-09-14T08:31:26.889Z,66112
2016-09-14T08:32:26.909Z,57312
2016-09-14T08:33:26.896Z,61280
2016-09-14T08:34:26.873Z,65504
2016-09-14T08:35:26.876Z,58976
2016-09-14T08:36:26.889Z,62400
2016-09-14T08:37:26.873Z,52000
2016-09-14T08:38:26.874Z,45472
2016-09-14T08:39:26.918Z,48128
2016-09-14T08:40:26.869Z,55552
2016-09-14T08:41:26.876Z,56768
2016-09-14T08:42:26.855Z,56608
2016-09-14T08:43:26.852Z,63616
2016-09-14T08:44:26.836Z,58688
2016-09-14T08:45:26.869Z,55392
2016-09-14T08:46:26.851Z,60960
2016-09-14T08:47:26.833Z,69824
2016-09-14T08:48:26.851Z,71648
2016-09-14T08:49:26.833Z,71776
2016-09-14T08:50:26.839Z,83552
2016-09-14T08:51:26.814Z,92928
2016-09-14T08:52:26.815Z,86496
2016-09-14T08:53:26.821Z,82496
2016-09-14T08:54:26.816Z,80704
2016-09-14T08:55:26.794Z,78496
2016-09-14T08:56:26.799Z,77920
2016-09-14T08:57:26.793Z,79808
2016-09-14T08:58:26.796Z,80448
2016-09-14T08:59:27.068Z,81824
2016-09-14T09:00:26.773Z,83680
2016-09-14T09:01:26.798Z,85344
2016-09-14T09:02:26.769Z,85824
2016-09-14T09:03:26.775Z,85664
2016-09-14T09:04:26.761Z,86848
2016-09-14T09:05:26.725Z,87328
2016-09-14T09:06:27.078Z,88640
2016-09-14T09:07:26.723Z,88928
2016-09-14T09:08:26.746Z,88544
2016-09-14T09:09:26.735Z,88032
2016-09-14T09:10:26.720Z,89216
2016-09-14T09:11:26.737Z,89248
2016-09-14T09:12:26.727Z,87136
2016-09-14T09:13:26.704Z,85696
2016-09-14T09:14:26.703Z,85536
2016-09-14T09:15:26.705Z,83904
2016-09-14T09:16:26.719Z,83808
2016-09-14T09:17:26.682Z,81920
2016-09-14T09:18:26.698Z,80864
2016-09-14T09:19:26.706Z,81696
2016-09-14T09:20:26.676Z,79072
2016-09-14T09:21:26.687Z,78464
2016-09-14T09:22:26.665Z,80384
2016-09-14T09:23:26.684Z,81824
2016-09-14T09:24:26.648Z,83296
2016-09-14T09:25:26.667Z,84800
2016-09-14T09:26:26.656Z,87296
2016-09-14T09:27:26.645Z,85984
2016-09-14T09:28:26.655Z,82816
2016-09-14T09:29:26.648Z,84448
2016-09-14T09:30:26.647Z,87136
2016-09-14T09:31:26.634Z,88288
2016-09-14T09:32:26.626Z,89664
2016-09-14T09:33:26.639Z,90944
2016-09-14T09:34:26.628Z,91584
2016-09-14T09:35:26.601Z,90528
2016-09-14T09:36:26.622Z,88544
2016-09-14T09:37:26.607Z,87072
2016-09-14T09:38:26.629Z,87168
2016-09-14T09:39:26.656Z,87936
2016-09-14T09:40:26.597Z,89664
2016-09-14T09:41:26.582Z,92000
2016-09-14T09:42:26.569Z,90336
2016-09-14T09:43:26.585Z,92512
2016-09-14T09:44:26.567Z,96960
2016-09-14T09:45:26.575Z,97664
2016-09-14T09:46:26.549Z,98112
2016-09-14T09:47:26.553Z,100640
2016-09-14T09:48:26.540Z,102272
2016-09-14T09:49:26.537Z,95584
2016-09-14T09:50:26.556Z,84224
2016-09-14T09:51:26.544Z,76576
2016-09-14T09:52:26.523Z,89216
2016-09-14T09:53:26.556Z,98016
2016-09-14T09:54:26.506Z,93472
2016-09-14T09:55:26.523Z,87136
2016-09-14T09:56:26.505Z,80096
2016-09-14T09:57:26.526Z,71840
2016-09-14T09:58:26.519Z,76480
2016-09-14T09:59:26.528Z,98752
2016-09-14T10:00:26.489Z,108480
2016-09-14T10:01:26.478Z,89152
2016-09-14T10:02:26.493Z,77664
2016-09-14T10:03:26.471Z,77536
2016-09-14T10:04:26.498Z,75296
2016-09-14T10:05:26.448Z,79680
2016-09-14T10:06:26.473Z,98080
2016-09-14T10:07:26.441Z,100416
2016-09-14T10:08:26.480Z,78752
2016-09-14T10:09:26.468Z,69856
2016-09-14T10:10:26.445Z,72416
2016-09-14T10:11:26.481Z,73280
2016-09-14T10:12:26.439Z,87264
2016-09-14T10:13:26.454Z,104064
2016-09-14T10:14:26.453Z,97664
2016-09-14T10:15:26.428Z,82816
2016-09-14T10:16:26.405Z,73728
2016-09-14T10:17:26.393Z,69728
2016-09-14T10:18:26.401Z,72448
2016-09-14T10:19:26.411Z,76032
2016-09-14T10:20:26.408Z,90592
2016-09-14T10:21:26.369Z,108224
2016-09-14T10:22:26.388Z,112576
2016-09-14T10:23:26.387Z,94880
2016-09-14T10:24:26.387Z,84544
2016-09-14T10:25:26.368Z,77184
2016-09-14T10:26:26.357Z,71744
2016-09-14T10:27:26.395Z,68640
2016-09-14T10:28:26.386Z,71808
2016-09-14T10:29:26.361Z,68128
2016-09-14T10:30:26.368Z,65536
2016-09-14T10:31:26.350Z,63424
2016-09-14T10:32:26.340Z,62592
2016-09-14T10:33:26.331Z,62592
2016-09-14T10:34:26.336Z,61216
2016-09-14T10:35:26.324Z,57312
2016-09-14T10:36:26.334Z,55008
2016-09-14T10:37:26.328Z,52128
2016-09-14T10:38:26.314Z,49536
2016-09-14T10:39:26.308Z,47904
2016-09-14T10:40:26.311Z,31968
2016-09-14T10:41:26.328Z,12872
2016-09-14T10:42:26.306Z,23360
2016-09-14T10:43:26.300Z,18592
2016-09-14T10:44:26.274Z,13216
2016-09-14T10:45:26.273Z,12592
2016-09-14T10:46:26.276Z,22688
2016-09-14T10:47:26.287Z,58880
2016-09-14T10:48:26.271Z,14316
2016-09-14T10:49:26.261Z,15068
2016-09-14T10:50:26.263Z,16400
2016-09-14T10:51:26.232Z,18368
2016-09-14T10:52:26.236Z,21472
2016-09-14T10:53:26.238Z,47456
2016-09-14T10:54:26.227Z,81024
2016-09-14T10:55:26.230Z,34368
2016-09-14T10:56:26.227Z,24928
2016-09-14T10:57:26.228Z,23872
2016-09-14T10:58:26.196Z,26080
2016-09-14T10:59:26.195Z,32704
2016-09-14T11:00:26.209Z,27744
2016-09-14T11:01:26.169Z,24192
2016-09-14T11:02:26.169Z,23808
2016-09-14T11:03:26.166Z,20512
2016-09-14T11:04:26.154Z,25888
2016-09-14T11:05:26.149Z,40160
2016-09-14T11:06:26.133Z,43136
2016-09-14T11:07:26.170Z,33504
2016-09-14T11:08:26.127Z,94720
2016-09-14T11:09:26.144Z,93792
2016-09-14T11:10:26.134Z,24768
2016-09-14T11:11:26.128Z,29120
2016-09-14T11:12:26.117Z,125216
2016-09-14T11:13:26.126Z,132640
2016-09-14T11:14:26.113Z,21248
2016-09-14T11:15:26.088Z,105696
2016-09-14T11:16:26.106Z,83872
2016-09-14T11:17:26.105Z,98880
2016-09-14T11:18:26.101Z,102912
2016-09-14T11:19:26.089Z,105504
2016-09-14T11:20:26.091Z,116960
2016-09-14T11:21:26.113Z,27552
2016-09-14T11:22:26.090Z,34208
2016-09-14T11:23:26.106Z,20640
2016-09-14T11:24:26.081Z,19968
2016-09-14T11:25:26.060Z,21664
2016-09-14T11:26:26.048Z,46208
2016-09-14T11:27:26.070Z,33024
2016-09-14T11:28:26.066Z,40000
2016-09-14T11:29:26.042Z,90464
2016-09-14T11:30:26.050Z,109312
2016-09-14T11:31:26.019Z,118528
2016-09-14T11:32:26.028Z,109888
2016-09-14T11:33:26.040Z,32992
2016-09-14T11:34:26.037Z,27488
2016-09-14T11:35:26.019Z,25376
2016-09-14T11:36:26.008Z,45664
2016-09-14T11:37:26.008Z,36288
2016-09-14T11:38:25.993Z,44160
2016-09-14T11:39:26.023Z,38944
2016-09-14T11:40:25.989Z,42560
2016-09-14T11:41:25.965Z,162048
2016-09-14T11:42:25.992Z,102432
2016-09-14T11:43:25.986Z,21952
2016-09-14T11:44:25.971Z,33440
2016-09-14T11:45:25.947Z,22848
2016-09-14T11:46:25.969Z,25632
2016-09-14T11:47:25.971Z,41248
2016-09-14T11:48:25.945Z,89120
2016-09-14T11:49:25.937Z,107072
2016-09-14T11:50:25.927Z,102112
2016-09-14T11:51:25.946Z,98080
2016-09-14T11:52:25.909Z,96640
2016-09-14T11:53:25.920Z,96928
2016-09-14T11:54:25.934Z,59648
2016-09-14T11:55:25.919Z,109056
2016-09-14T11:56:25.885Z,40032
2016-09-14T11:57:25.908Z,22848
2016-09-14T11:58:25.906Z,26976
2016-09-14T11:59:25.891Z,112992
2016-09-14T12:00:25.906Z,114080
2016-09-14T12:01:25.889Z,87872
2016-09-14T12:02:25.905Z,117120
2016-09-14T12:03:25.870Z,15156
2016-09-14T12:04:25.873Z,16776
2016-09-14T12:05:25.872Z,90240
2016-09-14T12:06:25.863Z,107136
2016-09-14T12:07:25.859Z,104480
2016-09-14T12:08:25.847Z,26048
2016-09-14T12:09:25.838Z,103680
2016-09-14T12:10:25.845Z,61600
2016-09-14T12:11:25.842Z,100896
2016-09-14T12:12:25.848Z,97824
2016-09-14T12:13:25.820Z,101376
2016-09-14T12:14:25.827Z,15692
2016-09-14T12:15:25.833Z,17324
2016-09-14T12:16:25.801Z,20416
2016-09-14T12:17:25.801Z,19008
2016-09-14T12:18:25.792Z,17020
2016-09-14T12:19:25.784Z,22720
2016-09-14T12:20:25.790Z,116192
2016-09-14T12:21:25.767Z,111136
2016-09-14T12:22:25.770Z,106816
2016-09-14T12:23:25.776Z,104448
2016-09-14T12:24:25.764Z,32992
2016-09-14T12:25:25.760Z,22208
2016-09-14T12:26:25.740Z,19104
2016-09-14T12:27:25.761Z,16580
2016-09-14T12:28:25.755Z,15584
2016-09-14T12:29:25.742Z,14408
2016-09-14T12:30:25.764Z,15912
2016-09-14T12:31:25.735Z,18784
2016-09-14T12:32:25.734Z,22048
2016-09-14T12:33:25.722Z,95328
2016-09-14T12:34:25.727Z,28384
2016-09-14T12:35:25.688Z,15872
2016-09-14T12:36:25.679Z,81216
2016-09-14T12:37:25.712Z,107392
2016-09-14T12:38:25.676Z,36928
2016-09-14T12:39:25.682Z,31232
2016-09-14T12:40:25.674Z,117088
2016-09-14T12:41:25.673Z,20576
2016-09-14T12:42:25.666Z,19424
2016-09-14T12:43:25.649Z,16796
2016-09-14T12:44:25.657Z,14716
2016-09-14T12:45:25.657Z,17700
2016-09-14T12:46:25.655Z,41728
2016-09-14T12:47:25.655Z,19232
2016-09-14T12:48:25.646Z,13396
2016-09-14T12:49:25.626Z,14944
2016-09-14T12:50:25.654Z,15576
2016-09-14T12:51:25.616Z,15536
2016-09-14T12:52:25.614Z,17504
2016-09-14T12:53:25.615Z,19488
2016-09-14T12:54:25.618Z,18656
2016-09-14T12:55:25.595Z,19488
2016-09-14T12:56:25.569Z,21088
2016-09-14T12:57:25.612Z,19424
2016-09-14T12:58:25.577Z,16300
2016-09-14T12:59:25.596Z,15180
2016-09-14T13:00:25.600Z,15972
2016-09-14T13:01:25.578Z,22944
2016-09-14T13:02:25.557Z,73376
2016-09-14T13:03:25.556Z,69184
2016-09-14T13:04:25.564Z,32928
2016-09-14T13:05:25.576Z,24640
2016-09-14T13:06:25.526Z,21504
2016-09-14T13:07:25.518Z,20448
2016-09-14T13:08:25.528Z,19520
2016-09-14T13:09:25.508Z,16168
2016-09-14T13:10:25.520Z,14628
2016-09-14T13:11:25.526Z,15876
2016-09-14T13:12:25.491Z,16040
2016-09-14T13:13:25.506Z,15260
2016-09-14T13:14:25.494Z,19616
2016-09-14T13:15:25.501Z,16448
2016-09-14T13:16:25.454Z,14528
2016-09-14T13:17:25.475Z,13444
2016-09-14T13:18:25.478Z,83168
2016-09-14T13:19:25.453Z,15736
2016-09-14T13:20:25.756Z,12904
2016-09-14T13:21:25.455Z,12840
2016-09-14T13:22:25.454Z,13108
2016-09-14T13:23:25.419Z,13368
2016-09-14T13:24:25.425Z,11140
2016-09-14T13:25:25.438Z,10248
2016-09-14T13:26:25.426Z,11048
2016-09-14T13:27:25.407Z,11252
2016-09-14T13:28:25.422Z,11736
2016-09-14T13:29:25.412Z,11880
2016-09-14T13:30:25.396Z,11232